Pukou, China
Current Conditions -  °F | °C
As of 5:00 PM on Friday 19 Dec 2014 (Local Time) from ZSNJ Reporting Station
Clear Clear  
Wind Chill: 42°   Ceiling: Unl
Heat Index: 46°   Visibility: 6mi
Dew Point: 32°   Wind: 9mph
Humidity: 57%   Direction: 220°SW
Pressure: 30.27"   Gusts: NA
Location:  32.1°N, 118.71°E
Report Text: ZSNJ 190900Z 22004MPS CAVOK 08/00 Q1025 NOSIG
Loading
Personal Weather Stations






























Interactive Weather Map New forecast layout! Learn more

10-Day Weather Forecast

Advertisements
Track Severe Weather on mobile